aviador You're here:

YBBN Decoded Metar

BRISBANE in AUSTRALIA
Report Time2017-04-28 08:00:00
UTC Time2017-04-28 08:11:38
Flight Rules vfr VFR
Wind200° at 11 kt
W.Decomp.*RWY 19: 11.0 kt HW 0.2 kt LCW
RWY 14: 7.2 kt HW 8.3 kt RCW
W.Rank200° ranks 2
Current wind is above 200° avg. (6.6)
Visibility9999 m
Phenomena:N/A
Clouds:N/A
Expected CloudBase > 3,600 ft AGL from Temp-Dew spread
CeilingNone
Temp21°C (ISA +6)
Dew Point12°C (57% RH)
AAT17.7°C
QNH1016 hPa
Density Alt807 ft
Elevation16 ft
Report Wrong Elevation
Raw Report
METAR YBBN 280800Z 20011KT CAVOK 21/12 Q1016
NOSIG=

Extra information for YBBN:More info

Metar Taf Metar & Taf Last 4 Metars F.Rules Stats Wind Profile Meteogram Temp Stats Airport Information Weather charts Add Link Nearby VenuesMetar ALERT Operation Metar Decoded Social comments